sensor_id;sensor_type;location;lat;lon;timestamp;temperature;humidity
2855;DHT22;1435;49.472;10.940;2023-02-15T00:01:59;3.30;99.90
2855;DHT22;1435;49.472;10.940;2023-02-15T00:07:01;3.30;99.90
2855;DHT22;1435;49.472;10.940;2023-02-15T00:12:04;3.30;99.90
2855;DHT22;1435;49.472;10.940;2023-02-15T00:17:06;3.40;99.90
2855;DHT22;1435;49.472;10.940;2023-02-15T00:22:08;3.40;99.90
2855;DHT22;1435;49.472;10.940;2023-02-15T00:27:11;3.40;99.90
2855;DHT22;1435;49.472;10.940;2023-02-15T00:32:13;3.40;99.90
2855;DHT22;1435;49.472;10.940;2023-02-15T00:37:14;3.30;99.90
2855;DHT22;1435;49.472;10.940;2023-02-15T00:42:17;3.30;99.90
2855;DHT22;1435;49.472;10.940;2023-02-15T00:47:19;3.30;99.90
2855;DHT22;1435;49.472;10.940;2023-02-15T00:52:21;3.30;99.90
2855;DHT22;1435;49.472;10.940;2023-02-15T00:57:24;3.30;99.90
2855;DHT22;1435;49.472;10.940;2023-02-15T01:02:26;3.20;99.90
2855;DHT22;1435;49.472;10.940;2023-02-15T01:07:28;3.20;99.90
2855;DHT22;1435;49.472;10.940;2023-02-15T01:12:31;3.20;99.90
2855;DHT22;1435;49.472;10.940;2023-02-15T01:17:33;3.20;99.90
2855;DHT22;1435;49.472;10.940;2023-02-15T01:22:35;3.20;99.90
2855;DHT22;1435;49.472;10.940;2023-02-15T01:27:38;3.20;99.90
2855;DHT22;1435;49.472;10.940;2023-02-15T01:32:40;3.20;99.90
2855;DHT22;1435;49.472;10.940;2023-02-15T01:37:41;3.20;99.90
2855;DHT22;1435;49.472;10.940;2023-02-15T01:42:45;3.10;99.90
2855;DHT22;1435;49.472;10.940;2023-02-15T01:47:51;3.20;99.90
2855;DHT22;1435;49.472;10.940;2023-02-15T01:52:57;3.20;99.90
2855;DHT22;1435;49.472;10.940;2023-02-15T01:58:01;3.10;99.90
2855;DHT22;1435;49.472;10.940;2023-02-15T02:03:03;2.80;99.90
2855;DHT22;1435;49.472;10.940;2023-02-15T02:08:06;2.70;99.90
2855;DHT22;1435;49.472;10.940;2023-02-15T02:13:11;2.80;99.90
2855;DHT22;1435;49.472;10.940;2023-02-15T02:18:23;2.80;99.90
2855;DHT22;1435;49.472;10.940;2023-02-15T02:23:40;2.80;99.90
2855;DHT22;1435;49.472;10.940;2023-02-15T02:29:15;2.80;99.90
2855;DHT22;1435;49.472;10.940;2023-02-15T02:34:28;2.80;99.90
2855;DHT22;1435;49.472;10.940;2023-02-15T02:39:36;2.90;99.90
2855;DHT22;1435;49.472;10.940;2023-02-15T02:44:42;2.80;99.90
2855;DHT22;1435;49.472;10.940;2023-02-15T02:49:46;2.80;99.90
2855;DHT22;1435;49.472;10.940;2023-02-15T02:54:47;2.80;99.90
2855;DHT22;1435;49.472;10.940;2023-02-15T02:59:50;2.80;99.90
2855;DHT22;1435;49.472;10.940;2023-02-15T03:04:59;2.80;99.90
2855;DHT22;1435;49.472;10.940;2023-02-15T03:10:05;2.80;99.90
2855;DHT22;1435;49.472;10.940;2023-02-15T03:15:11;2.70;99.90
2855;DHT22;1435;49.472;10.940;2023-02-15T03:20:18;2.50;99.90
2855;DHT22;1435;49.472;10.940;2023-02-15T03:25:22;2.50;99.90
2855;DHT22;1435;49.472;10.940;2023-02-15T03:30:26;2.50;99.90
2855;DHT22;1435;49.472;10.940;2023-02-15T03:35:35;2.50;99.90
2855;DHT22;1435;49.472;10.940;2023-02-15T03:40:41;2.50;99.90
2855;DHT22;1435;49.472;10.940;2023-02-15T03:46:06;2.50;99.90
2855;DHT22;1435;49.472;10.940;2023-02-15T03:51:19;2.50;99.90
2855;DHT22;1435;49.472;10.940;2023-02-15T03:56:39;2.50;99.90
2855;DHT22;1435;49.472;10.940;2023-02-15T04:01:49;2.50;99.90
2855;DHT22;1435;49.472;10.940;2023-02-15T04:07:02;2.60;99.90
2855;DHT22;1435;49.472;10.940;2023-02-15T04:12:05;2.50;99.90
2855;DHT22;1435;49.472;10.940;2023-02-15T04:17:07;2.50;99.90
2855;DHT22;1435;49.472;10.940;2023-02-15T04:22:11;2.40;99.90
2855;DHT22;1435;49.472;10.940;2023-02-15T04:27:31;2.40;99.90
2855;DHT22;1435;49.472;10.940;2023-02-15T04:32:33;2.40;99.90
2855;DHT22;1435;49.472;10.940;2023-02-15T04:37:36;2.40;99.90
2855;DHT22;1435;49.472;10.940;2023-02-15T04:42:38;2.30;99.90
2855;DHT22;1435;49.472;10.940;2023-02-15T04:47:40;2.30;99.90
2855;DHT22;1435;49.472;10.940;2023-02-15T04:52:44;2.30;99.90
2855;DHT22;1435;49.472;10.940;2023-02-15T04:57:46;2.40;99.90
2855;DHT22;1435;49.472;10.940;2023-02-15T05:02:47;2.40;99.90
2855;DHT22;1435;49.472;10.940;2023-02-15T05:07:50;2.30;99.90
2855;DHT22;1435;49.472;10.940;2023-02-15T05:12:52;2.30;99.90
2855;DHT22;1435;49.472;10.940;2023-02-15T05:17:54;2.20;99.90
2855;DHT22;1435;49.472;10.940;2023-02-15T05:22:57;2.20;99.90
2855;DHT22;1435;49.472;10.940;2023-02-15T05:27:58;2.20;99.90
2855;DHT22;1435;49.472;10.940;2023-02-15T05:33:18;2.20;99.90
2855;DHT22;1435;49.472;10.940;2023-02-15T05:38:21;2.30;99.90
2855;DHT22;1435;49.472;10.940;2023-02-15T05:43:23;2.30;99.90
2855;DHT22;1435;49.472;10.940;2023-02-15T05:48:26;2.30;99.90
2855;DHT22;1435;49.472;10.940;2023-02-15T05:53:30;2.30;99.90
2855;DHT22;1435;49.472;10.940;2023-02-15T05:58:34;2.20;99.90
2855;DHT22;1435;49.472;10.940;2023-02-15T06:03:36;2.30;99.90
2855;DHT22;1435;49.472;10.940;2023-02-15T06:08:39;2.30;99.90
2855;DHT22;1435;49.472;10.940;2023-02-15T06:13:41;2.20;99.90
2855;DHT22;1435;49.472;10.940;2023-02-15T06:18:42;2.20;99.90
2855;DHT22;1435;49.472;10.940;2023-02-15T06:23:46;2.20;99.90
2855;DHT22;1435;49.472;10.940;2023-02-15T06:28:47;2.10;99.90
2855;DHT22;1435;49.472;10.940;2023-02-15T06:33:49;2.20;99.90
2855;DHT22;1435;49.472;10.940;2023-02-15T06:38:52;2.20;99.90
2855;DHT22;1435;49.472;10.940;2023-02-15T06:43:54;2.20;99.90
2855;DHT22;1435;49.472;10.940;2023-02-15T06:48:55;2.10;99.90
2855;DHT22;1435;49.472;10.940;2023-02-15T06:53:59;2.10;99.90
2855;DHT22;1435;49.472;10.940;2023-02-15T06:59:00;2.10;99.90
2855;DHT22;1435;49.472;10.940;2023-02-15T07:04:02;2.10;99.90
2855;DHT22;1435;49.472;10.940;2023-02-15T07:09:05;2.00;99.90
2855;DHT22;1435;49.472;10.940;2023-02-15T07:14:07;2.00;99.90
2855;DHT22;1435;49.472;10.940;2023-02-15T07:19:09;2.00;99.90
2855;DHT22;1435;49.472;10.940;2023-02-15T07:24:12;2.00;99.90
2855;DHT22;1435;49.472;10.940;2023-02-15T07:29:14;2.00;99.90
2855;DHT22;1435;49.472;10.940;2023-02-15T07:34:16;1.90;99.90
2855;DHT22;1435;49.472;10.940;2023-02-15T07:39:19;1.90;99.90
2855;DHT22;1435;49.472;10.940;2023-02-15T07:44:21;1.80;99.90
2855;DHT22;1435;49.472;10.940;2023-02-15T07:49:23;1.90;99.90
2855;DHT22;1435;49.472;10.940;2023-02-15T07:54:26;1.90;99.90
2855;DHT22;1435;49.472;10.940;2023-02-15T07:59:27;1.90;99.90
2855;DHT22;1435;49.472;10.940;2023-02-15T08:04:29;1.90;99.90
2855;DHT22;1435;49.472;10.940;2023-02-15T08:09:33;1.90;99.90
2855;DHT22;1435;49.472;10.940;2023-02-15T08:14:34;1.90;99.90
2855;DHT22;1435;49.472;10.940;2023-02-15T08:19:36;2.00;99.90
2855;DHT22;1435;49.472;10.940;2023-02-15T08:24:39;1.80;99.90
2855;DHT22;1435;49.472;10.940;2023-02-15T08:29:41;1.80;99.90
2855;DHT22;1435;49.472;10.940;2023-02-15T08:34:43;1.90;99.90
2855;DHT22;1435;49.472;10.940;2023-02-15T08:39:46;1.90;99.90
2855;DHT22;1435;49.472;10.940;2023-02-15T08:44:48;2.00;99.90
2855;DHT22;1435;49.472;10.940;2023-02-15T08:49:50;1.90;99.90
2855;DHT22;1435;49.472;10.940;2023-02-15T08:54:54;1.90;99.90
2855;DHT22;1435;49.472;10.940;2023-02-15T08:59:56;2.00;99.90
2855;DHT22;1435;49.472;10.940;2023-02-15T09:04:57;2.00;99.90
2855;DHT22;1435;49.472;10.940;2023-02-15T09:10:00;1.90;99.90
2855;DHT22;1435;49.472;10.940;2023-02-15T09:15:07;2.00;99.90
2855;DHT22;1435;49.472;10.940;2023-02-15T09:20:09;2.20;99.90
2855;DHT22;1435;49.472;10.940;2023-02-15T09:25:12;2.30;99.90
2855;DHT22;1435;49.472;10.940;2023-02-15T09:30:15;2.20;99.90
2855;DHT22;1435;49.472;10.940;2023-02-15T09:35:17;2.40;99.90
2855;DHT22;1435;49.472;10.940;2023-02-15T09:40:20;2.40;99.90
2855;DHT22;1435;49.472;10.940;2023-02-15T09:45:32;2.40;99.90
2855;DHT22;1435;49.472;10.940;2023-02-15T09:50:43;2.40;99.90
2855;DHT22;1435;49.472;10.940;2023-02-15T09:55:54;2.50;99.90
2855;DHT22;1435;49.472;10.940;2023-02-15T10:01:08;2.50;99.90
2855;DHT22;1435;49.472;10.940;2023-02-15T10:06:28;2.50;99.90
2855;DHT22;1435;49.472;10.940;2023-02-15T10:11:44;2.60;99.90
2855;DHT22;1435;49.472;10.940;2023-02-15T10:16:56;2.60;99.90
2855;DHT22;1435;49.472;10.940;2023-02-15T10:22:11;2.60;99.90
2855;DHT22;1435;49.472;10.940;2023-02-15T10:27:20;2.60;99.90
2855;DHT22;1435;49.472;10.940;2023-02-15T10:32:24;2.70;99.90
2855;DHT22;1435;49.472;10.940;2023-02-15T10:37:45;2.60;99.90
2855;DHT22;1435;49.472;10.940;2023-02-15T10:43:02;2.70;99.90
2855;DHT22;1435;49.472;10.940;2023-02-15T10:48:23;2.60;99.90
2855;DHT22;1435;49.472;10.940;2023-02-15T10:53:45;2.80;99.90
2855;DHT22;1435;49.472;10.940;2023-02-15T10:59:19;2.90;99.90
2855;DHT22;1435;49.472;10.940;2023-02-15T11:04:40;3.00;99.90
2855;DHT22;1435;49.472;10.940;2023-02-15T11:09:48;3.00;99.90
2855;DHT22;1435;49.472;10.940;2023-02-15T11:14:56;3.10;99.90
2855;DHT22;1435;49.472;10.940;2023-02-15T11:20:04;3.20;99.90
2855;DHT22;1435;49.472;10.940;2023-02-15T11:25:17;3.20;99.90
2855;DHT22;1435;49.472;10.940;2023-02-15T11:30:22;3.30;99.90
2855;DHT22;1435;49.472;10.940;2023-02-15T11:35:27;3.30;99.90
2855;DHT22;1435;49.472;10.940;2023-02-15T11:40:34;3.30;99.90
2855;DHT22;1435;49.472;10.940;2023-02-15T11:45:41;3.40;99.90
2855;DHT22;1435;49.472;10.940;2023-02-15T11:50:44;3.50;99.90
2855;DHT22;1435;49.472;10.940;2023-02-15T11:55:48;3.40;99.90
2855;DHT22;1435;49.472;10.940;2023-02-15T12:00:56;3.50;99.90
2855;DHT22;1435;49.472;10.940;2023-02-15T12:06:02;3.60;99.90
2855;DHT22;1435;49.472;10.940;2023-02-15T12:11:07;3.70;99.90
2855;DHT22;1435;49.472;10.940;2023-02-15T12:16:14;3.80;99.90
2855;DHT22;1435;49.472;10.940;2023-02-15T12:21:25;3.70;99.90
2855;DHT22;1435;49.472;10.940;2023-02-15T12:26:29;3.80;99.90
2855;DHT22;1435;49.472;10.940;2023-02-15T12:31:36;3.80;99.90
2855;DHT22;1435;49.472;10.940;2023-02-15T12:36:42;3.80;99.90
2855;DHT22;1435;49.472;10.940;2023-02-15T12:41:58;3.90;99.90
2855;DHT22;1435;49.472;10.940;2023-02-15T12:47:04;4.00;99.90
2855;DHT22;1435;49.472;10.940;2023-02-15T12:52:23;4.10;99.90
2855;DHT22;1435;49.472;10.940;2023-02-15T12:57:28;4.30;99.90
2855;DHT22;1435;49.472;10.940;2023-02-15T13:02:36;4.40;99.90
2855;DHT22;1435;49.472;10.940;2023-02-15T13:07:45;4.50;99.90
2855;DHT22;1435;49.472;10.940;2023-02-15T13:12:47;4.70;99.90
2855;DHT22;1435;49.472;10.940;2023-02-15T13:17:55;4.70;99.90
2855;DHT22;1435;49.472;10.940;2023-02-15T13:23:00;4.90;99.90
2855;DHT22;1435;49.472;10.940;2023-02-15T13:28:05;5.10;99.90
2855;DHT22;1435;49.472;10.940;2023-02-15T13:33:14;5.30;99.90
2855;DHT22;1435;49.472;10.940;2023-02-15T13:38:37;5.60;99.90
2855;DHT22;1435;49.472;10.940;2023-02-15T13:43:52;5.80;99.90
2855;DHT22;1435;49.472;10.940;2023-02-15T13:49:06;6.00;99.90
2855;DHT22;1435;49.472;10.940;2023-02-15T13:54:32;6.30;99.90
2855;DHT22;1435;49.472;10.940;2023-02-15T13:59:46;6.50;99.90
2855;DHT22;1435;49.472;10.940;2023-02-15T14:05:22;6.60;99.90
2855;DHT22;1435;49.472;10.940;2023-02-15T14:10:44;6.80;99.90
2855;DHT22;1435;49.472;10.940;2023-02-15T14:15:49;6.90;99.90
2855;DHT22;1435;49.472;10.940;2023-02-15T14:21:04;7.10;99.90
2855;DHT22;1435;49.472;10.940;2023-02-15T14:26:13;7.30;99.90
2855;DHT22;1435;49.472;10.940;2023-02-15T14:31:23;7.50;99.90
2855;DHT22;1435;49.472;10.940;2023-02-15T14:36:29;7.70;99.90
2855;DHT22;1435;49.472;10.940;2023-02-15T14:41:36;7.90;99.90
2855;DHT22;1435;49.472;10.940;2023-02-15T14:46:46;8.00;99.90
2855;DHT22;1435;49.472;10.940;2023-02-15T14:51:59;8.20;99.90
2855;DHT22;1435;49.472;10.940;2023-02-15T14:57:32;8.50;99.90
2855;DHT22;1435;49.472;10.940;2023-02-15T15:02:44;8.70;99.90
2855;DHT22;1435;49.472;10.940;2023-02-15T15:07:51;9.10;99.90
2855;DHT22;1435;49.472;10.940;2023-02-15T15:12:55;9.40;99.90
2855;DHT22;1435;49.472;10.940;2023-02-15T15:17:59;9.60;99.90
2855;DHT22;1435;49.472;10.940;2023-02-15T15:23:42;9.50;99.90
2855;DHT22;1435;49.472;10.940;2023-02-15T15:28:56;9.50;99.90
2855;DHT22;1435;49.472;10.940;2023-02-15T15:34:37;9.50;99.90
2855;DHT22;1435;49.472;10.940;2023-02-15T15:45:44;9.20;99.90
2855;DHT22;1435;49.472;10.940;2023-02-15T15:50:51;9.00;99.90
2855;DHT22;1435;49.472;10.940;2023-02-15T15:55:58;8.70;99.90
2855;DHT22;1435;49.472;10.940;2023-02-15T16:01:04;8.40;99.90
2855;DHT22;1435;49.472;10.940;2023-02-15T16:06:13;8.10;99.90
2855;DHT22;1435;49.472;10.940;2023-02-15T16:11:19;7.80;99.90
2855;DHT22;1435;49.472;10.940;2023-02-15T16:16:25;7.40;99.90
2855;DHT22;1435;49.472;10.940;2023-02-15T16:21:31;7.20;99.90
2855;DHT22;1435;49.472;10.940;2023-02-15T16:26:50;6.90;99.90
2855;DHT22;1435;49.472;10.940;2023-02-15T16:31:59;6.70;99.90
2855;DHT22;1435;49.472;10.940;2023-02-15T16:37:15;6.40;99.90
2855;DHT22;1435;49.472;10.940;2023-02-15T16:42:18;6.20;99.90
2855;DHT22;1435;49.472;10.940;2023-02-15T16:47:23;6.00;99.90
2855;DHT22;1435;49.472;10.940;2023-02-15T16:52:26;5.80;99.90
2855;DHT22;1435;49.472;10.940;2023-02-15T16:57:33;5.70;99.90
2855;DHT22;1435;49.472;10.940;2023-02-15T17:02:36;5.50;99.90
2855;DHT22;1435;49.472;10.940;2023-02-15T17:07:39;5.30;99.90
2855;DHT22;1435;49.472;10.940;2023-02-15T17:12:47;5.20;99.90
2855;DHT22;1435;49.472;10.940;2023-02-15T17:17:51;5.00;99.90
2855;DHT22;1435;49.472;10.940;2023-02-15T17:22:54;4.80;99.90
2855;DHT22;1435;49.472;10.940;2023-02-15T17:27:58;4.70;99.90
2855;DHT22;1435;49.472;10.940;2023-02-15T17:33:01;4.50;99.90
2855;DHT22;1435;49.472;10.940;2023-02-15T17:38:06;4.40;99.90
2855;DHT22;1435;49.472;10.940;2023-02-15T17:43:09;4.30;99.90
2855;DHT22;1435;49.472;10.940;2023-02-15T17:48:20;4.20;99.90
2855;DHT22;1435;49.472;10.940;2023-02-15T17:53:23;4.20;99.90
2855;DHT22;1435;49.472;10.940;2023-02-15T17:58:26;4.30;99.90
2855;DHT22;1435;49.472;10.940;2023-02-15T18:03:36;4.30;99.90
2855;DHT22;1435;49.472;10.940;2023-02-15T18:08:56;4.30;99.90
2855;DHT22;1435;49.472;10.940;2023-02-15T18:14:17;4.30;99.90
2855;DHT22;1435;49.472;10.940;2023-02-15T18:19:20;4.30;99.90
2855;DHT22;1435;49.472;10.940;2023-02-15T18:24:23;4.20;99.90
2855;DHT22;1435;49.472;10.940;2023-02-15T18:29:27;4.20;99.90
2855;DHT22;1435;49.472;10.940;2023-02-15T18:34:31;4.20;99.90
2855;DHT22;1435;49.472;10.940;2023-02-15T18:39:36;4.10;99.90
2855;DHT22;1435;49.472;10.940;2023-02-15T18:44:40;4.10;99.90
2855;DHT22;1435;49.472;10.940;2023-02-15T18:49:42;4.10;99.90
2855;DHT22;1435;49.472;10.940;2023-02-15T18:54:44;4.10;99.90
2855;DHT22;1435;49.472;10.940;2023-02-15T18:59:48;4.00;99.90
2855;DHT22;1435;49.472;10.940;2023-02-15T19:04:50;4.00;99.90
2855;DHT22;1435;49.472;10.940;2023-02-15T19:09:55;3.90;99.90
2855;DHT22;1435;49.472;10.940;2023-02-15T19:14:58;3.90;99.90
2855;DHT22;1435;49.472;10.940;2023-02-15T19:20:01;3.90;99.90
2855;DHT22;1435;49.472;10.940;2023-02-15T19:25:04;3.90;99.90
2855;DHT22;1435;49.472;10.940;2023-02-15T19:30:14;3.80;99.90
2855;DHT22;1435;49.472;10.940;2023-02-15T19:35:18;3.90;99.90
2855;DHT22;1435;49.472;10.940;2023-02-15T19:40:23;3.80;99.90
2855;DHT22;1435;49.472;10.940;2023-02-15T19:45:28;3.80;99.90
2855;DHT22;1435;49.472;10.940;2023-02-15T19:50:33;3.80;99.90
2855;DHT22;1435;49.472;10.940;2023-02-15T19:55:34;3.80;99.90
2855;DHT22;1435;49.472;10.940;2023-02-15T20:00:39;3.80;99.90
2855;DHT22;1435;49.472;10.940;2023-02-15T20:05:41;3.80;99.90
2855;DHT22;1435;49.472;10.940;2023-02-15T20:10:43;3.80;99.90
2855;DHT22;1435;49.472;10.940;2023-02-15T20:15:47;3.80;99.90
2855;DHT22;1435;49.472;10.940;2023-02-15T20:20:50;3.80;99.90
2855;DHT22;1435;49.472;10.940;2023-02-15T20:25:53;3.60;99.90
2855;DHT22;1435;49.472;10.940;2023-02-15T20:30:57;3.70;99.90
2855;DHT22;1435;49.472;10.940;2023-02-15T20:35:59;3.70;99.90
2855;DHT22;1435;49.472;10.940;2023-02-15T20:41:00;3.70;99.90
2855;DHT22;1435;49.472;10.940;2023-02-15T20:46:21;3.60;99.90
2855;DHT22;1435;49.472;10.940;2023-02-15T20:51:23;3.70;99.90
2855;DHT22;1435;49.472;10.940;2023-02-15T20:56:24;3.50;99.90
2855;DHT22;1435;49.472;10.940;2023-02-15T21:01:27;3.50;99.90
2855;DHT22;1435;49.472;10.940;2023-02-15T21:06:29;3.50;99.90
2855;DHT22;1435;49.472;10.940;2023-02-15T21:11:31;3.50;99.90
2855;DHT22;1435;49.472;10.940;2023-02-15T21:16:34;3.50;99.90
2855;DHT22;1435;49.472;10.940;2023-02-15T21:21:36;3.50;99.90
2855;DHT22;1435;49.472;10.940;2023-02-15T21:26:41;3.40;99.90
2855;DHT22;1435;49.472;10.940;2023-02-15T21:31:46;3.40;99.90
2855;DHT22;1435;49.472;10.940;2023-02-15T21:36:48;3.40;99.90
2855;DHT22;1435;49.472;10.940;2023-02-15T21:41:52;3.40;99.90
2855;DHT22;1435;49.472;10.940;2023-02-15T21:47:18;3.40;99.90
2855;DHT22;1435;49.472;10.940;2023-02-15T21:52:37;3.30;99.90
2855;DHT22;1435;49.472;10.940;2023-02-15T21:57:39;3.40;99.90
2855;DHT22;1435;49.472;10.940;2023-02-15T22:02:43;3.40;99.90
2855;DHT22;1435;49.472;10.940;2023-02-15T22:07:45;3.40;99.90
2855;DHT22;1435;49.472;10.940;2023-02-15T22:12:47;3.40;99.90
2855;DHT22;1435;49.472;10.940;2023-02-15T22:17:51;3.40;99.90
2855;DHT22;1435;49.472;10.940;2023-02-15T22:22:53;3.40;99.90
2855;DHT22;1435;49.472;10.940;2023-02-15T22:27:55;3.30;99.90
2855;DHT22;1435;49.472;10.940;2023-02-15T22:32:59;3.30;99.90
2855;DHT22;1435;49.472;10.940;2023-02-15T22:38:01;3.20;99.90
2855;DHT22;1435;49.472;10.940;2023-02-15T22:43:04;3.20;99.90
2855;DHT22;1435;49.472;10.940;2023-02-15T22:48:09;3.20;99.90
2855;DHT22;1435;49.472;10.940;2023-02-15T22:53:11;3.10;99.90
2855;DHT22;1435;49.472;10.940;2023-02-15T22:58:16;3.10;99.90
2855;DHT22;1435;49.472;10.940;2023-02-15T23:03:22;3.10;99.90
2855;DHT22;1435;49.472;10.940;2023-02-15T23:08:24;3.10;99.90
2855;DHT22;1435;49.472;10.940;2023-02-15T23:13:29;3.00;99.90
2855;DHT22;1435;49.472;10.940;2023-02-15T23:18:34;3.00;99.90
2855;DHT22;1435;49.472;10.940;2023-02-15T23:23:39;3.00;99.90
2855;DHT22;1435;49.472;10.940;2023-02-15T23:28:41;3.00;99.90
2855;DHT22;1435;49.472;10.940;2023-02-15T23:33:45;3.00;99.90
2855;DHT22;1435;49.472;10.940;2023-02-15T23:38:47;3.00;99.90
2855;DHT22;1435;49.472;10.940;2023-02-15T23:43:52;3.00;99.90
2855;DHT22;1435;49.472;10.940;2023-02-15T23:48:56;3.00;99.90
2855;DHT22;1435;49.472;10.940;2023-02-15T23:53:58;3.00;99.90
2855;DHT22;1435;49.472;10.940;2023-02-15T23:59:00;3.00;99.90
